createdAt,value
2023-01-18T00:01:04.467Z,100.00
2023-01-18T00:03:36.660Z,100.00
2023-01-18T00:06:06.383Z,100.00
2023-01-18T00:08:35.218Z,100.00
2023-01-18T00:11:05.992Z,100.00
2023-01-18T00:13:35.393Z,100.00
2023-01-18T00:16:07.901Z,100.00
2023-01-18T00:18:38.189Z,100.00
2023-01-18T00:21:08.156Z,100.00
2023-01-18T00:23:38.576Z,100.00
2023-01-18T00:26:07.978Z,100.00
2023-01-18T00:28:36.980Z,100.00
2023-01-18T00:31:12.271Z,100.00
2023-01-18T00:33:46.494Z,100.00
2023-01-18T00:36:16.938Z,100.00
2023-01-18T00:38:51.434Z,100.00
2023-01-18T00:41:22.492Z,100.00
2023-01-18T00:43:50.507Z,100.00
2023-01-18T00:46:22.362Z,100.00
2023-01-18T00:48:52.892Z,100.00
2023-01-18T00:51:24.029Z,100.00
2023-01-18T00:53:52.608Z,100.00
2023-01-18T00:56:23.245Z,100.00
2023-01-18T00:58:53.992Z,100.00
2023-01-18T01:01:26.187Z,100.00
2023-01-18T01:04:12.283Z,100.00
2023-01-18T01:06:47.938Z,100.00
2023-01-18T01:09:19.499Z,100.00
2023-01-18T01:12:02.402Z,100.00
2023-01-18T01:14:56.182Z,100.00
2023-01-18T01:17:44.074Z,100.00
2023-01-18T01:20:30.274Z,100.00
2023-01-18T01:23:16.849Z,100.00
2023-01-18T01:26:03.967Z,100.00
2023-01-18T01:28:32.484Z,100.00
2023-01-18T01:31:02.841Z,100.00
2023-01-18T01:33:34.495Z,100.00
2023-01-18T01:36:05.171Z,100.00
2023-01-18T01:38:35.123Z,100.00
2023-01-18T01:41:07.441Z,100.00
2023-01-18T01:43:42.078Z,100.00
2023-01-18T01:46:25.578Z,100.00
2023-01-18T01:49:02.386Z,100.00
2023-01-18T01:51:30.973Z,100.00
2023-01-18T01:54:09.199Z,100.00
2023-01-18T01:56:39.622Z,100.00
2023-01-18T01:59:11.479Z,100.00
2023-01-18T02:01:43.685Z,100.00
2023-01-18T02:04:13.909Z,100.00
2023-01-18T02:06:43.449Z,100.00
2023-01-18T02:09:15.650Z,100.00
2023-01-18T02:11:44.774Z,100.00
2023-01-18T02:14:16.688Z,100.00
2023-01-18T02:16:58.410Z,100.00
2023-01-18T02:20:01.797Z,100.00
2023-01-18T02:22:46.736Z,100.00
2023-01-18T02:25:48.342Z,100.00
2023-01-18T02:28:19.783Z,100.00
2023-01-18T02:30:52.459Z,100.00
2023-01-18T02:33:30.892Z,100.00
2023-01-18T02:36:04.608Z,100.00
2023-01-18T02:38:39.983Z,100.00
2023-01-18T02:41:16.053Z,100.00
2023-01-18T02:44:06.460Z,100.00
2023-01-18T02:46:35.733Z,100.00
2023-01-18T02:49:07.679Z,100.00
2023-01-18T02:51:39.056Z,100.00
2023-01-18T02:54:09.619Z,100.00
2023-01-18T02:56:45.690Z,100.00
2023-01-18T02:59:23.072Z,100.00
2023-01-18T03:02:00.119Z,100.00
2023-01-18T03:04:38.125Z,100.00
2023-01-18T03:07:12.213Z,100.00
2023-01-18T03:09:42.996Z,100.00
2023-01-18T03:12:21.687Z,100.00
2023-01-18T03:15:01.614Z,100.00
2023-01-18T03:17:40.237Z,100.00
2023-01-18T03:20:12.525Z,100.00
2023-01-18T03:23:06.591Z,100.00
2023-01-18T03:25:39.079Z,100.00
2023-01-18T03:28:28.915Z,100.00
2023-01-18T03:31:21.068Z,100.00
2023-01-18T03:33:52.577Z,100.00
2023-01-18T03:36:28.024Z,100.00
2023-01-18T03:39:02.358Z,100.00
2023-01-18T03:41:36.294Z,100.00
2023-01-18T03:44:10.129Z,100.00
2023-01-18T03:46:43.836Z,100.00
2023-01-18T03:49:13.921Z,100.00
2023-01-18T03:51:54.442Z,100.00
2023-01-18T03:54:36.492Z,100.00
2023-01-18T03:57:09.958Z,100.00
2023-01-18T03:59:41.397Z,100.00
2023-01-18T04:02:11.201Z,100.00
2023-01-18T04:04:40.401Z,100.00
2023-01-18T04:07:12.127Z,100.00
2023-01-18T04:09:41.325Z,100.00
2023-01-18T04:12:13.748Z,100.00
2023-01-18T04:14:42.653Z,100.00
2023-01-18T04:17:18.240Z,100.00
2023-01-18T04:19:47.338Z,100.00
2023-01-18T04:22:18.351Z,100.00
2023-01-18T04:24:47.325Z,100.00
2023-01-18T04:27:16.070Z,100.00
2023-01-18T04:29:44.827Z,100.00
2023-01-18T04:32:15.139Z,100.00
2023-01-18T04:34:43.491Z,100.00
2023-01-18T04:37:11.690Z,100.00
2023-01-18T04:39:40.521Z,100.00
2023-01-18T04:42:09.049Z,100.00
2023-01-18T04:44:38.366Z,100.00
2023-01-18T04:47:12.276Z,100.00
2023-01-18T04:49:43.616Z,100.00
2023-01-18T04:52:13.669Z,100.00
2023-01-18T04:54:43.655Z,100.00
2023-01-18T04:57:14.606Z,100.00
2023-01-18T04:59:46.215Z,100.00
2023-01-18T05:02:16.715Z,100.00
2023-01-18T05:04:48.093Z,100.00
2023-01-18T05:07:17.676Z,100.00
2023-01-18T05:09:47.903Z,100.00
2023-01-18T05:12:17.020Z,100.00
2023-01-18T05:14:47.146Z,100.00
2023-01-18T05:17:15.574Z,100.00
2023-01-18T05:19:43.618Z,100.00
2023-01-18T05:22:13.947Z,100.00
2023-01-18T05:24:42.369Z,100.00
2023-01-18T05:27:12.147Z,100.00
2023-01-18T05:29:40.297Z,100.00
2023-01-18T05:32:10.589Z,100.00
2023-01-18T05:34:42.258Z,100.00
2023-01-18T05:37:11.066Z,100.00
2023-01-18T05:42:54.037Z,100.00
2023-01-18T05:45:22.348Z,100.00
2023-01-18T05:47:50.720Z,100.00
2023-01-18T05:50:18.829Z,100.00
2023-01-18T05:52:47.107Z,100.00
2023-01-18T05:55:15.616Z,100.00
2023-01-18T05:57:46.003Z,100.00
2023-01-18T06:00:18.385Z,100.00
2023-01-18T06:02:46.792Z,100.00
2023-01-18T06:05:15.687Z,100.00
2023-01-18T06:07:44.577Z,100.00
2023-01-18T06:10:12.836Z,100.00
2023-01-18T06:12:41.183Z,100.00
2023-01-18T06:15:13.009Z,100.00
2023-01-18T06:17:42.938Z,100.00
2023-01-18T06:20:15.917Z,100.00
2023-01-18T06:22:45.544Z,100.00
2023-01-18T06:25:13.773Z,100.00
2023-01-18T06:27:45.375Z,100.00
2023-01-18T06:30:14.250Z,100.00
2023-01-18T06:32:51.402Z,100.00
2023-01-18T06:35:25.021Z,100.00
2023-01-18T06:37:56.532Z,100.00
2023-01-18T06:40:27.061Z,100.00
2023-01-18T06:42:55.210Z,100.00
2023-01-18T06:45:25.398Z,100.00
2023-01-18T06:47:57.173Z,100.00
2023-01-18T06:50:25.893Z,100.00
2023-01-18T06:52:55.836Z,100.00
2023-01-18T06:55:24.277Z,100.00
2023-01-18T06:57:52.680Z,100.00
2023-01-18T07:00:22.322Z,100.00
2023-01-18T07:02:54.048Z,100.00
2023-01-18T07:05:24.278Z,100.00
2023-01-18T07:07:52.541Z,100.00
2023-01-18T07:10:20.617Z,100.00
2023-01-18T07:12:50.848Z,100.00
2023-01-18T07:15:23.008Z,100.00
2023-01-18T07:17:51.390Z,100.00
2023-01-18T07:20:20.274Z,100.00
2023-01-18T07:22:56.112Z,100.00
2023-01-18T07:25:24.802Z,100.00
2023-01-18T07:27:53.366Z,100.00
2023-01-18T07:30:21.644Z,100.00
2023-01-18T07:32:51.523Z,100.00
2023-01-18T07:35:23.591Z,100.00
2023-01-18T07:37:54.444Z,100.00
2023-01-18T07:40:25.946Z,100.00
2023-01-18T07:42:58.720Z,100.00
2023-01-18T07:45:27.146Z,100.00
2023-01-18T07:47:55.576Z,100.00
2023-01-18T07:50:25.110Z,100.00
2023-01-18T07:52:56.435Z,100.00
2023-01-18T07:55:24.948Z,100.00
2023-01-18T07:57:53.111Z,100.00
2023-01-18T08:00:23.324Z,100.00
2023-01-18T08:02:52.302Z,100.00
2023-01-18T08:05:24.083Z,100.00
2023-01-18T08:07:53.686Z,100.00
2023-01-18T08:10:23.599Z,100.00
2023-01-18T08:12:52.295Z,100.00
2023-01-18T08:15:21.097Z,100.00
2023-01-18T08:17:51.138Z,100.00
2023-01-18T08:20:21.092Z,100.00
2023-01-18T08:22:49.943Z,100.00
2023-01-18T08:25:18.706Z,100.00
2023-01-18T08:27:49.950Z,100.00
2023-01-18T08:30:21.790Z,100.00
2023-01-18T08:32:51.176Z,100.00
2023-01-18T08:35:19.351Z,100.00
2023-01-18T08:37:48.853Z,100.00
2023-01-18T08:40:17.146Z,100.00
2023-01-18T08:42:47.127Z,100.00
2023-01-18T08:45:17.878Z,100.00
2023-01-18T08:47:48.033Z,100.00
2023-01-18T08:50:17.387Z,100.00
2023-01-18T08:52:45.978Z,100.00
2023-01-18T08:55:18.306Z,100.00
2023-01-18T08:57:47.287Z,100.00
2023-01-18T09:00:18.341Z,100.00
2023-01-18T09:02:49.550Z,100.00
2023-01-18T09:05:18.216Z,100.00
2023-01-18T09:07:50.010Z,100.00
2023-01-18T09:10:19.551Z,100.00
2023-01-18T09:12:48.171Z,100.00
2023-01-18T09:15:19.275Z,100.00
2023-01-18T09:17:48.705Z,100.00
2023-01-18T09:20:19.082Z,100.00
2023-01-18T09:22:48.830Z,100.00
2023-01-18T09:25:18.420Z,100.00
2023-01-18T09:27:47.516Z,100.00
2023-01-18T09:30:18.337Z,100.00
2023-01-18T09:32:46.621Z,100.00
2023-01-18T09:35:18.296Z,100.00
2023-01-18T09:37:47.898Z,100.00
2023-01-18T09:40:19.929Z,100.00
2023-01-18T09:42:51.420Z,100.00
2023-01-18T09:45:29.718Z,100.00
2023-01-18T09:48:03.378Z,100.00
2023-01-18T09:50:41.842Z,100.00
2023-01-18T09:53:24.642Z,100.00
2023-01-18T09:56:02.409Z,100.00
2023-01-18T09:58:41.544Z,100.00
2023-01-18T10:01:16.177Z,100.00
2023-01-18T10:03:51.877Z,100.00
2023-01-18T10:06:24.927Z,100.00
2023-01-18T10:09:00.293Z,100.00
2023-01-18T10:11:44.814Z,100.00
2023-01-18T10:14:23.123Z,100.00
2023-01-18T10:16:58.004Z,100.00
2023-01-18T10:19:30.011Z,100.00
2023-01-18T10:22:04.325Z,100.00
2023-01-18T10:24:42.381Z,100.00
2023-01-18T10:27:24.567Z,100.00
2023-01-18T10:30:04.296Z,100.00
2023-01-18T10:32:36.256Z,100.00
2023-01-18T10:38:36.236Z,100.00
2023-01-18T10:41:04.736Z,100.00
2023-01-18T10:43:33.857Z,100.00
2023-01-18T10:46:02.161Z,100.00
2023-01-18T10:48:34.368Z,100.00
2023-01-18T10:51:05.837Z,100.00
2023-01-18T10:53:36.441Z,100.00
2023-01-18T10:56:08.805Z,100.00
2023-01-18T10:58:48.990Z,100.00
2023-01-18T11:01:22.303Z,100.00
2023-01-18T11:03:54.633Z,100.00
2023-01-18T11:06:24.453Z,100.00
2023-01-18T11:08:54.499Z,100.00
2023-01-18T11:11:45.354Z,100.00
2023-01-18T11:14:27.912Z,100.00
2023-01-18T11:17:02.265Z,100.00
2023-01-18T11:19:32.505Z,100.00
2023-01-18T11:22:05.158Z,100.00
2023-01-18T11:24:34.141Z,100.00
2023-01-18T11:27:13.669Z,100.00
2023-01-18T11:29:45.457Z,100.00
2023-01-18T11:32:21.853Z,100.00
2023-01-18T11:34:54.559Z,100.00
2023-01-18T11:37:31.841Z,100.00
2023-01-18T11:40:00.412Z,100.00
2023-01-18T11:42:31.465Z,100.00
2023-01-18T11:45:15.787Z,100.00
2023-01-18T11:47:57.440Z,100.00
2023-01-18T11:50:43.681Z,100.00
2023-01-18T11:53:31.481Z,100.00
2023-01-18T11:56:07.735Z,100.00
2023-01-18T11:58:38.152Z,100.00
2023-01-18T12:01:23.923Z,100.00
2023-01-18T12:04:02.863Z,100.00
2023-01-18T12:06:46.525Z,100.00
2023-01-18T12:09:30.555Z,100.00
2023-01-18T12:12:18.915Z,100.00
2023-01-18T12:15:00.498Z,100.00
2023-01-18T12:17:45.842Z,100.00
2023-01-18T12:20:26.476Z,100.00
2023-01-18T12:23:13.177Z,100.00
2023-01-18T12:26:13.136Z,100.00
2023-01-18T12:28:58.323Z,100.00
2023-01-18T12:31:35.028Z,100.00
2023-01-18T12:34:10.415Z,100.00
2023-01-18T12:36:54.656Z,100.00
2023-01-18T12:39:43.228Z,100.00
2023-01-18T12:42:20.297Z,100.00
2023-01-18T12:45:07.084Z,100.00
2023-01-18T12:47:39.492Z,100.00
2023-01-18T12:50:16.945Z,100.00
2023-01-18T12:52:49.786Z,100.00
2023-01-18T12:55:25.618Z,100.00
2023-01-18T12:57:58.798Z,94.72
2023-01-18T13:00:35.307Z,90.03
2023-01-18T13:03:07.586Z,88.94
2023-01-18T13:05:51.234Z,89.52
2023-01-18T13:08:29.292Z,89.77
2023-01-18T13:11:07.344Z,90.27
2023-01-18T13:13:39.442Z,94.89
2023-01-18T13:16:23.209Z,90.88
2023-01-18T13:18:59.576Z,92.06
2023-01-18T13:21:45.419Z,92.83
2023-01-18T13:24:24.520Z,91.99
2023-01-18T13:27:06.637Z,100.00
2023-01-18T13:29:35.833Z,100.00
2023-01-18T13:32:06.189Z,100.00
2023-01-18T13:34:47.641Z,100.00
2023-01-18T13:37:49.166Z,100.00
2023-01-18T13:40:37.861Z,100.00
2023-01-18T13:43:31.941Z,100.00
2023-01-18T13:46:03.374Z,100.00
2023-01-18T13:48:46.963Z,100.00
2023-01-18T13:51:52.395Z,100.00
2023-01-18T13:55:05.501Z,100.00
2023-01-18T13:57:36.006Z,100.00
2023-01-18T14:00:24.996Z,100.00
2023-01-18T14:02:57.646Z,100.00
2023-01-18T14:05:28.717Z,100.00
2023-01-18T14:08:02.240Z,100.00
2023-01-18T14:10:34.349Z,100.00
2023-01-18T14:13:04.939Z,100.00
2023-01-18T14:15:54.681Z,100.00
2023-01-18T14:18:25.249Z,100.00
2023-01-18T14:21:24.622Z,100.00
2023-01-18T14:24:24.192Z,100.00
2023-01-18T14:26:56.596Z,100.00
2023-01-18T14:29:34.133Z,100.00
2023-01-18T14:32:07.838Z,100.00
2023-01-18T14:34:39.222Z,100.00
2023-01-18T14:37:27.425Z,100.00
2023-01-18T14:40:18.708Z,100.00
2023-01-18T14:42:54.332Z,100.00
2023-01-18T14:45:29.336Z,100.00
2023-01-18T14:48:01.975Z,100.00
2023-01-18T14:50:38.286Z,100.00
2023-01-18T14:53:09.167Z,100.00
2023-01-18T14:55:37.334Z,100.00
2023-01-18T14:58:16.549Z,100.00
2023-01-18T15:00:47.374Z,100.00
2023-01-18T15:03:26.192Z,100.00
2023-01-18T15:06:02.095Z,100.00
2023-01-18T15:08:33.983Z,100.00
2023-01-18T15:11:05.039Z,100.00
2023-01-18T15:13:37.086Z,100.00
2023-01-18T15:16:09.633Z,100.00
2023-01-18T15:18:42.983Z,100.00
2023-01-18T15:21:17.870Z,100.00
2023-01-18T15:23:47.963Z,100.00
2023-01-18T15:26:16.087Z,100.00
2023-01-18T15:28:44.403Z,100.00
2023-01-18T15:31:15.399Z,100.00
2023-01-18T15:33:46.610Z,100.00
2023-01-18T15:36:16.015Z,100.00
2023-01-18T15:38:44.378Z,100.00
2023-01-18T15:41:15.682Z,100.00
2023-01-18T15:43:46.045Z,100.00
2023-01-18T15:46:17.018Z,100.00
2023-01-18T15:48:52.124Z,100.00
2023-01-18T15:51:41.815Z,100.00
2023-01-18T15:54:13.111Z,100.00
2023-01-18T15:56:41.577Z,100.00
2023-01-18T15:59:12.614Z,100.00
2023-01-18T16:01:42.164Z,100.00
2023-01-18T16:04:23.750Z,100.00
2023-01-18T16:06:52.039Z,100.00
2023-01-18T16:09:23.604Z,100.00
2023-01-18T16:11:56.956Z,100.00
2023-01-18T16:14:33.515Z,100.00
2023-01-18T16:17:09.371Z,100.00
2023-01-18T16:19:43.477Z,100.00
2023-01-18T16:22:20.681Z,100.00
2023-01-18T16:24:53.484Z,100.00
2023-01-18T16:27:23.439Z,100.00
2023-01-18T16:29:55.754Z,100.00
2023-01-18T16:32:33.389Z,100.00
2023-01-18T16:35:14.001Z,100.00
2023-01-18T16:37:46.712Z,100.00
2023-01-18T16:40:16.430Z,100.00
2023-01-18T16:43:01.196Z,100.00
2023-01-18T16:45:31.263Z,100.00
2023-01-18T16:47:59.882Z,100.00
2023-01-18T16:50:29.857Z,100.00
2023-01-18T16:52:58.408Z,100.00
2023-01-18T16:56:34.435Z,100.00
2023-01-18T16:59:08.213Z,100.00
2023-01-18T17:01:38.925Z,100.00
2023-01-18T17:04:09.681Z,100.00
2023-01-18T17:06:38.724Z,100.00
2023-01-18T17:09:19.915Z,100.00
2023-01-18T17:11:50.856Z,100.00
2023-01-18T17:14:19.351Z,100.00
2023-01-18T17:16:50.807Z,100.00
2023-01-18T17:19:23.612Z,100.00
2023-01-18T17:21:52.445Z,100.00
2023-01-18T17:24:22.670Z,100.00
2023-01-18T17:26:55.104Z,100.00
2023-01-18T17:29:24.042Z,100.00
2023-01-18T17:31:53.528Z,100.00
2023-01-18T17:34:28.609Z,100.00
2023-01-18T17:36:59.000Z,100.00
2023-01-18T17:39:37.436Z,100.00
2023-01-18T17:42:22.828Z,100.00
2023-01-18T17:45:02.829Z,100.00
2023-01-18T17:47:34.636Z,100.00
2023-01-18T17:50:08.691Z,100.00
2023-01-18T17:52:37.999Z,100.00
2023-01-18T17:55:08.149Z,100.00
2023-01-18T17:57:38.061Z,100.00
2023-01-18T18:00:09.297Z,100.00
2023-01-18T18:02:37.934Z,100.00
2023-01-18T18:05:07.446Z,100.00
2023-01-18T18:07:36.374Z,100.00
2023-01-18T18:10:06.087Z,100.00
2023-01-18T18:12:37.772Z,100.00
2023-01-18T18:15:08.347Z,100.00
2023-01-18T18:17:38.119Z,100.00
2023-01-18T18:20:10.948Z,100.00
2023-01-18T18:22:41.312Z,100.00
2023-01-18T18:25:11.160Z,100.00
2023-01-18T18:27:45.709Z,100.00
2023-01-18T18:30:15.618Z,100.00
2023-01-18T18:32:44.732Z,100.00
2023-01-18T18:35:25.064Z,100.00
2023-01-18T18:37:55.749Z,100.00
2023-01-18T18:40:27.450Z,100.00
2023-01-18T18:43:02.272Z,100.00
2023-01-18T18:45:32.413Z,100.00
2023-01-18T18:48:01.664Z,100.00
2023-01-18T18:50:32.987Z,100.00
2023-01-18T18:53:01.947Z,100.00
2023-01-18T18:55:30.515Z,100.00
2023-01-18T18:58:00.210Z,100.00
2023-01-18T19:00:34.400Z,100.00
2023-01-18T19:03:11.553Z,100.00
2023-01-18T19:05:40.078Z,100.00
2023-01-18T19:08:08.305Z,100.00
2023-01-18T19:10:36.779Z,100.00
2023-01-18T19:13:07.407Z,100.00
2023-01-18T19:15:36.025Z,100.00
2023-01-18T19:18:04.457Z,100.00
2023-01-18T19:20:33.301Z,100.00
2023-01-18T19:23:04.389Z,100.00
2023-01-18T19:25:33.628Z,100.00
2023-01-18T19:28:01.783Z,100.00
2023-01-18T19:30:33.136Z,100.00
2023-01-18T19:33:03.113Z,100.00
2023-01-18T19:35:34.291Z,100.00
2023-01-18T19:38:02.544Z,100.00
2023-01-18T19:40:30.841Z,100.00
2023-01-18T19:43:00.282Z,100.00
2023-01-18T19:45:29.150Z,100.00
2023-01-18T19:48:02.156Z,100.00
2023-01-18T19:50:31.208Z,100.00
2023-01-18T19:53:01.032Z,100.00
2023-01-18T19:55:31.544Z,100.00
2023-01-18T19:58:02.055Z,100.00
2023-01-18T20:00:30.740Z,100.00
2023-01-18T20:03:01.179Z,100.00
2023-01-18T20:05:29.559Z,100.00
2023-01-18T20:07:58.807Z,100.00
2023-01-18T20:10:28.855Z,100.00
2023-01-18T20:12:57.536Z,100.00
2023-01-18T20:15:26.322Z,100.00
2023-01-18T20:17:54.808Z,100.00
2023-01-18T20:20:32.561Z,100.00
2023-01-18T20:23:04.137Z,100.00
2023-01-18T20:25:33.903Z,100.00
2023-01-18T20:28:02.363Z,100.00
2023-01-18T20:30:30.963Z,100.00
2023-01-18T20:32:59.553Z,100.00
2023-01-18T20:35:30.905Z,100.00
2023-01-18T20:37:59.190Z,100.00
2023-01-18T20:40:27.519Z,100.00
2023-01-18T20:42:55.904Z,100.00
2023-01-18T20:45:24.103Z,100.00
2023-01-18T20:47:53.002Z,100.00
2023-01-18T20:50:23.364Z,100.00
2023-01-18T20:52:54.126Z,100.00
2023-01-18T20:55:23.427Z,100.00
2023-01-18T20:57:52.717Z,100.00
2023-01-18T21:00:21.697Z,100.00
2023-01-18T21:02:50.485Z,100.00
2023-01-18T21:05:19.246Z,100.00
2023-01-18T21:07:47.813Z,100.00
2023-01-18T21:10:18.230Z,100.00
2023-01-18T21:12:48.285Z,100.00
2023-01-18T21:15:17.514Z,100.00
2023-01-18T21:17:45.871Z,100.00
2023-01-18T21:20:14.748Z,100.00
2023-01-18T21:22:43.303Z,100.00
2023-01-18T21:25:12.196Z,100.00
2023-01-18T21:27:43.711Z,100.00
2023-01-18T21:30:13.489Z,100.00
2023-01-18T21:32:42.713Z,100.00
2023-01-18T21:35:11.776Z,100.00
2023-01-18T21:37:40.723Z,100.00
2023-01-18T21:40:13.250Z,100.00
2023-01-18T21:43:00.787Z,100.00
2023-01-18T21:45:47.096Z,100.00
2023-01-18T21:48:16.037Z,100.00
2023-01-18T21:51:01.853Z,100.00
2023-01-18T21:53:49.683Z,100.00
2023-01-18T21:56:18.042Z,100.00
2023-01-18T21:58:54.243Z,100.00
2023-01-18T22:01:25.417Z,100.00
2023-01-18T22:04:14.224Z,100.00
2023-01-18T22:06:42.403Z,100.00
2023-01-18T22:09:10.769Z,100.00
2023-01-18T22:11:39.042Z,100.00
2023-01-18T22:14:10.214Z,100.00
2023-01-18T22:16:39.912Z,100.00
2023-01-18T22:19:09.685Z,100.00
2023-01-18T22:21:38.312Z,100.00
2023-01-18T22:24:07.811Z,100.00
2023-01-18T22:26:36.541Z,100.00
2023-01-18T22:29:04.755Z,100.00
2023-01-18T22:31:34.768Z,100.00
2023-01-18T22:34:05.408Z,100.00
2023-01-18T22:36:35.273Z,100.00
2023-01-18T22:39:03.461Z,100.00
2023-01-18T22:41:31.612Z,100.00
2023-01-18T22:44:00.119Z,100.00
2023-01-18T22:46:28.531Z,100.00
2023-01-18T22:48:59.548Z,100.00
2023-01-18T22:51:28.499Z,100.00
2023-01-18T22:53:57.521Z,100.00
2023-01-18T22:56:27.252Z,100.00
2023-01-18T22:58:55.329Z,100.00
2023-01-18T23:01:26.220Z,100.00
2023-01-18T23:03:58.145Z,100.00
2023-01-18T23:06:29.517Z,100.00
2023-01-18T23:08:59.363Z,100.00
2023-01-18T23:11:30.679Z,100.00
2023-01-18T23:14:16.736Z,100.00
2023-01-18T23:17:03.928Z,100.00
2023-01-18T23:19:33.372Z,100.00
2023-01-18T23:22:06.994Z,100.00
2023-01-18T23:24:35.900Z,100.00
2023-01-18T23:27:05.848Z,100.00
2023-01-18T23:29:34.710Z,100.00
2023-01-18T23:32:02.855Z,100.00
2023-01-18T23:34:31.041Z,100.00
2023-01-18T23:36:59.432Z,100.00
2023-01-18T23:39:46.655Z,100.00
2023-01-18T23:42:32.714Z,100.00
2023-01-18T23:45:18.751Z,100.00
2023-01-18T23:48:04.739Z,100.00
2023-01-18T23:50:50.579Z,100.00
2023-01-18T23:53:36.329Z,100.00
2023-01-18T23:56:06.326Z,100.00
2023-01-18T23:58:34.874Z,100.00
